createdAt,value
2018-08-21T00:00:21.368Z,57.29
2018-08-21T00:01:21.425Z,57.01
2018-08-21T00:02:21.484Z,57.37
2018-08-21T00:03:21.219Z,57.20
2018-08-21T00:04:21.197Z,57.10
2018-08-21T00:05:21.342Z,57.20
2018-08-21T00:06:21.110Z,56.72
2018-08-21T00:07:21.166Z,57.29
2018-08-21T00:08:20.996Z,57.49
2018-08-21T00:09:20.968Z,57.68
2018-08-21T00:10:21.118Z,58.14
2018-08-21T00:11:20.874Z,58.04
2018-08-21T00:12:20.810Z,58.23
2018-08-21T00:13:20.884Z,58.72
2018-08-21T00:14:20.747Z,58.91
2018-08-21T00:15:20.694Z,59.20
2018-08-21T00:16:20.653Z,58.91
2018-08-21T00:17:20.602Z,59.20
2018-08-21T00:18:20.755Z,59.39
2018-08-21T00:19:20.620Z,59.58
2018-08-21T00:20:20.467Z,59.78
2018-08-21T00:21:20.405Z,59.58
2018-08-21T00:22:20.576Z,59.87
2018-08-21T00:23:20.345Z,59.58
2018-08-21T00:24:20.283Z,59.78
2018-08-21T00:25:20.341Z,60.35
2018-08-21T00:26:20.195Z,60.06
2018-08-21T00:27:20.157Z,60.45
2018-08-21T00:28:20.305Z,60.64
2018-08-21T00:29:20.041Z,60.16
2018-08-21T00:30:20.008Z,60.74
2018-08-21T00:31:20.064Z,61.03
2018-08-21T00:32:19.927Z,60.83
2018-08-21T00:33:20.077Z,60.83
2018-08-21T00:34:20.039Z,61.03
2018-08-21T00:35:19.794Z,61.80
2018-08-21T00:36:19.739Z,61.90
2018-08-21T00:37:19.776Z,61.90
2018-08-21T00:38:19.651Z,62.48
2018-08-21T00:39:19.610Z,62.38
2018-08-21T00:40:20.767Z,62.66
2018-08-21T00:41:19.508Z,63.63
2018-08-21T00:42:19.663Z,63.41
2018-08-21T00:43:19.520Z,63.44
2018-08-21T00:44:19.380Z,63.89
2018-08-21T00:45:19.537Z,64.18
2018-08-21T00:46:19.488Z,63.98
2018-08-21T00:47:19.240Z,65.05
2018-08-21T00:48:19.276Z,64.47
2018-08-21T00:49:19.243Z,65.14
2018-08-21T00:50:19.315Z,65.05
2018-08-21T00:51:19.063Z,64.66
2018-08-21T00:52:19.014Z,65.72
2018-08-21T00:53:18.963Z,65.63
2018-08-21T00:54:18.911Z,65.63
2018-08-21T00:55:23.029Z,65.72
2018-08-21T00:56:18.810Z,65.43
2018-08-21T00:57:18.779Z,65.47
2018-08-21T00:58:18.739Z,65.63
2018-08-21T00:59:18.679Z,65.43
2018-08-21T01:00:18.651Z,65.53
2018-08-21T01:01:18.702Z,65.91
2018-08-21T01:02:18.759Z,65.91
2018-08-21T01:03:18.516Z,65.91
2018-08-21T01:04:18.468Z,66.59
2018-08-21T01:05:18.418Z,66.59
2018-08-21T01:06:18.369Z,66.59
2018-08-21T01:07:18.432Z,67.65
2018-08-21T01:08:18.293Z,67.94
2018-08-21T01:09:18.242Z,67.84
2018-08-21T01:10:18.197Z,68.61
2018-08-21T01:11:18.148Z,68.38
2018-08-21T01:12:18.104Z,68.58
2018-08-21T01:13:18.310Z,69.25
2018-08-21T01:14:18.206Z,69.54
2018-08-21T01:15:17.958Z,69.83
2018-08-21T01:16:17.927Z,69.83
2018-08-21T01:17:17.871Z,69.73
2018-08-21T01:18:17.835Z,70.31
2018-08-21T01:19:17.882Z,70.50
2018-08-21T01:20:17.733Z,70.02
2018-08-21T01:21:17.690Z,70.60
2018-08-21T01:22:17.639Z,71.28
2018-08-21T01:23:17.598Z,71.08
2018-08-21T01:24:17.756Z,71.18
2018-08-21T01:25:17.550Z,71.56
2018-08-21T01:26:17.447Z,71.81
2018-08-21T01:27:17.617Z,72.20
2018-08-21T01:28:17.352Z,72.01
2018-08-21T01:29:17.317Z,72.68
2018-08-21T01:30:17.286Z,72.88
2018-08-21T01:31:17.328Z,73.26
2018-08-21T01:32:17.182Z,73.36
2018-08-21T01:33:17.129Z,73.84
2018-08-21T01:34:17.295Z,73.84
2018-08-21T01:35:17.053Z,73.74
2018-08-21T01:36:17.016Z,74.51
2018-08-21T01:37:17.055Z,74.13
2018-08-21T01:38:16.910Z,74.61
2018-08-21T01:39:16.862Z,74.51
2018-08-21T01:40:16.826Z,74.90
2018-08-21T01:41:16.772Z,75.19
2018-08-21T01:42:16.733Z,75.19
2018-08-21T01:43:16.986Z,75.19
2018-08-21T01:44:16.634Z,75.67
2018-08-21T01:45:16.586Z,75.63
2018-08-21T01:46:16.527Z,76.11
2018-08-21T01:47:16.693Z,76.01
2018-08-21T01:48:16.449Z,76.25
2018-08-21T01:49:16.446Z,76.31
2018-08-21T01:50:16.360Z,76.73
2018-08-21T01:51:16.319Z,77.08
2018-08-21T01:52:16.267Z,77.36
2018-08-21T01:53:16.231Z,77.08
2018-08-21T01:54:16.178Z,77.36
2018-08-21T01:55:16.178Z,77.46
2018-08-21T01:56:16.088Z,77.46
2018-08-21T01:57:16.032Z,78.23
2018-08-21T01:58:15.993Z,77.94
2018-08-21T01:59:15.969Z,78.61
2018-08-21T02:00:15.899Z,78.71
2018-08-21T02:01:15.901Z,78.13
2018-08-21T02:02:15.813Z,77.94
2018-08-21T02:03:15.743Z,78.61
2018-08-21T02:04:15.912Z,78.61
2018-08-21T02:05:15.660Z,78.90
2018-08-21T02:06:15.621Z,78.81
2018-08-21T02:07:15.626Z,78.61
2018-08-21T02:08:15.537Z,79.28
2018-08-21T02:09:15.484Z,79.10
2018-08-21T02:10:15.639Z,79.00
2018-08-21T02:11:15.387Z,79.19
2018-08-21T02:12:15.341Z,79.77
2018-08-21T02:13:15.301Z,79.86
2018-08-21T02:14:15.453Z,80.15
2018-08-21T02:15:15.205Z,80.06
2018-08-21T02:16:15.363Z,80.06
2018-08-21T02:17:15.120Z,80.44
2018-08-21T02:18:15.063Z,80.44
2018-08-21T02:19:15.019Z,80.73
2018-08-21T02:20:14.957Z,80.92
2018-08-21T02:21:15.133Z,81.12
2018-08-21T02:22:14.890Z,81.12
2018-08-21T02:23:14.820Z,81.21
2018-08-21T02:24:14.794Z,80.83
2018-08-21T02:25:14.757Z,81.30
2018-08-21T02:26:14.897Z,81.30
2018-08-21T02:27:14.636Z,80.83
2018-08-21T02:28:14.602Z,81.02
2018-08-21T02:29:14.556Z,81.40
2018-08-21T02:30:14.518Z,81.30
2018-08-21T02:31:14.462Z,81.70
2018-08-21T02:32:14.418Z,81.79
2018-08-21T02:33:14.374Z,81.94
2018-08-21T02:34:14.323Z,82.23
2018-08-21T02:35:14.291Z,82.65
2018-08-21T02:36:14.256Z,82.23
2018-08-21T02:37:14.192Z,82.08
2018-08-21T02:38:14.145Z,82.08
2018-08-21T02:39:14.097Z,82.14
2018-08-21T02:40:14.055Z,82.14
2018-08-21T02:41:14.001Z,82.32
2018-08-21T02:42:15.168Z,82.32
2018-08-21T02:43:13.909Z,82.52
2018-08-21T02:44:13.853Z,81.75
2018-08-21T02:45:13.814Z,82.61
2018-08-21T02:46:13.774Z,83.00
2018-08-21T02:47:13.733Z,82.71
2018-08-21T02:48:13.681Z,82.81
2018-08-21T02:49:13.646Z,83.00
2018-08-21T02:50:13.597Z,83.19
2018-08-21T02:51:13.537Z,83.19
2018-08-21T02:52:13.490Z,83.19
2018-08-21T02:53:13.461Z,82.90
2018-08-21T02:54:13.403Z,82.81
2018-08-21T02:55:13.358Z,83.29
2018-08-21T02:56:13.319Z,84.06
2018-08-21T02:57:13.259Z,83.86
2018-08-21T02:58:13.215Z,83.86
2018-08-21T02:59:13.187Z,83.48
2018-08-21T03:00:13.124Z,84.06
2018-08-21T03:01:13.075Z,84.73
2018-08-21T03:02:13.041Z,84.83
2018-08-21T03:03:12.990Z,84.88
2018-08-21T03:04:12.933Z,85.46
2018-08-21T03:05:12.876Z,85.75
2018-08-21T03:06:12.847Z,85.84
2018-08-21T03:07:13.995Z,85.94
2018-08-21T03:08:12.765Z,85.84
2018-08-21T03:09:12.705Z,86.13
2018-08-21T03:10:12.665Z,86.13
2018-08-21T03:11:12.624Z,86.13
2018-08-21T03:12:12.548Z,86.52
2018-08-21T03:13:12.718Z,85.75
2018-08-21T03:14:12.470Z,85.65
2018-08-21T03:15:12.425Z,85.84
2018-08-21T03:16:12.383Z,85.84
2018-08-21T03:17:12.539Z,85.55
2018-08-21T03:18:12.296Z,86.22
2018-08-21T03:19:12.254Z,86.13
2018-08-21T03:20:12.197Z,86.52
2018-08-21T03:21:12.128Z,86.52
2018-08-21T03:22:12.310Z,87.19
2018-08-21T03:23:12.050Z,87.09
2018-08-21T03:24:12.022Z,86.71
2018-08-21T03:25:11.959Z,86.80
2018-08-21T03:26:11.920Z,87.29
2018-08-21T03:27:11.874Z,86.80
2018-08-21T03:28:11.819Z,87.09
2018-08-21T03:29:11.781Z,86.61
2018-08-21T03:30:11.729Z,86.71
2018-08-21T03:31:11.693Z,87.48
2018-08-21T03:32:11.837Z,87.09
2018-08-21T03:33:11.586Z,87.67
2018-08-21T03:34:11.535Z,88.24
2018-08-21T03:35:11.496Z,88.06
2018-08-21T03:36:11.443Z,88.06
2018-08-21T03:37:11.379Z,87.96
2018-08-21T03:38:11.361Z,87.86
2018-08-21T03:39:11.314Z,88.10
2018-08-21T03:40:11.264Z,88.39
2018-08-21T03:41:11.218Z,88.20
2018-08-21T03:42:11.169Z,88.78
2018-08-21T03:43:11.117Z,88.49
2018-08-21T03:44:11.071Z,88.49
2018-08-21T03:45:11.024Z,88.39
2018-08-21T03:46:10.980Z,88.39
2018-08-21T03:47:10.932Z,88.30
2018-08-21T03:48:10.876Z,88.30
2018-08-21T03:49:10.848Z,88.39
2018-08-21T03:50:10.793Z,88.68
2018-08-21T03:51:10.744Z,88.59
2018-08-21T03:52:10.694Z,88.59
2018-08-21T03:53:10.658Z,88.78
2018-08-21T03:54:10.584Z,89.07
2018-08-21T03:55:10.557Z,89.07
2018-08-21T03:56:10.712Z,89.54
2018-08-21T03:57:10.465Z,89.26
2018-08-21T03:58:10.417Z,89.36
2018-08-21T03:59:10.372Z,89.45
2018-08-21T04:00:10.336Z,90.31
2018-08-21T04:01:10.296Z,90.37
2018-08-21T04:02:10.237Z,90.75
2018-08-21T04:03:10.189Z,90.17
2018-08-21T04:04:10.134Z,90.94
2018-08-21T04:05:10.134Z,90.46
2018-08-21T04:06:10.050Z,90.75
2018-08-21T04:07:09.986Z,91.04
2018-08-21T04:08:09.947Z,91.04
2018-08-21T04:09:09.905Z,90.94
2018-08-21T04:10:09.879Z,90.66
2018-08-21T04:11:09.813Z,90.12
2018-08-21T04:12:09.757Z,90.03
2018-08-21T04:13:09.711Z,89.54
2018-08-21T04:14:09.664Z,89.36
2018-08-21T04:15:09.616Z,90.31
2018-08-21T04:16:09.573Z,90.31
2018-08-21T04:17:09.526Z,90.31
2018-08-21T04:18:09.482Z,89.93
2018-08-21T04:19:09.428Z,90.22
2018-08-21T04:20:09.384Z,90.12
2018-08-21T04:21:09.546Z,90.03
2018-08-21T04:22:09.293Z,90.22
2018-08-21T04:23:09.232Z,89.54
2018-08-21T04:24:09.197Z,89.54
2018-08-21T04:25:09.147Z,90.22
2018-08-21T04:26:09.109Z,90.51
2018-08-21T04:27:09.058Z,90.31
2018-08-21T04:28:09.009Z,90.41
2018-08-21T04:29:08.972Z,89.93
2018-08-21T04:30:08.923Z,90.22
2018-08-21T04:31:08.870Z,89.45
2018-08-21T04:32:08.829Z,89.64
2018-08-21T04:33:08.777Z,89.54
2018-08-21T04:34:08.715Z,88.87
2018-08-21T04:35:08.690Z,88.78
2018-08-21T04:36:08.697Z,88.87
2018-08-21T04:37:08.597Z,89.07
2018-08-21T04:38:08.586Z,88.87
2018-08-21T04:39:08.483Z,88.87
2018-08-21T04:40:08.447Z,88.97
2018-08-21T04:41:08.408Z,89.07
2018-08-21T04:42:08.338Z,89.45
2018-08-21T04:43:08.308Z,89.64
2018-08-21T04:44:08.269Z,89.54
2018-08-21T04:45:08.238Z,89.83
2018-08-21T04:46:08.175Z,89.36
2018-08-21T04:47:08.127Z,89.45
2018-08-21T04:48:08.072Z,89.36
2018-08-21T04:49:08.033Z,89.64
2018-08-21T04:50:07.977Z,89.36
2018-08-21T04:51:07.955Z,89.07
2018-08-21T04:52:07.893Z,89.36
2018-08-21T04:53:07.824Z,89.45
2018-08-21T04:54:07.798Z,90.17
2018-08-21T04:55:07.754Z,90.66
2018-08-21T04:56:07.698Z,91.13
2018-08-21T04:57:07.663Z,91.42
2018-08-21T04:58:07.613Z,91.81
2018-08-21T04:59:07.614Z,91.42
2018-08-21T05:00:07.514Z,91.61
2018-08-21T05:01:07.470Z,91.61
2018-08-21T05:02:07.417Z,92.33
2018-08-21T05:03:07.379Z,92.53
2018-08-21T05:04:07.337Z,92.57
2018-08-21T05:05:07.281Z,92.33
2018-08-21T05:06:07.230Z,92.91
2018-08-21T05:07:07.181Z,93.10
2018-08-21T05:08:07.144Z,93.30
2018-08-21T05:09:07.093Z,93.01
2018-08-21T05:10:07.047Z,93.39
2018-08-21T05:11:06.997Z,93.87
2018-08-21T05:12:06.937Z,93.68
2018-08-21T05:13:06.909Z,93.77
2018-08-21T05:14:06.853Z,93.77
2018-08-21T05:15:06.809Z,93.87
2018-08-21T05:16:06.786Z,93.87
2018-08-21T05:17:06.716Z,94.26
2018-08-21T05:18:06.710Z,94.45
2018-08-21T05:19:06.622Z,94.54
2018-08-21T05:20:06.568Z,94.54
2018-08-21T05:21:06.529Z,94.74
2018-08-21T05:22:06.474Z,95.12
2018-08-21T05:23:06.428Z,94.83
2018-08-21T05:24:06.389Z,95.21
2018-08-21T05:25:06.351Z,95.70
2018-08-21T05:26:06.289Z,95.31
2018-08-21T05:27:06.240Z,95.41
2018-08-21T05:28:06.203Z,94.35
2018-08-21T05:29:06.152Z,94.54
2018-08-21T05:30:06.097Z,94.83
2018-08-21T05:31:06.050Z,95.12
2018-08-21T05:32:06.013Z,94.88
2018-08-21T05:33:05.956Z,95.60
2018-08-21T05:34:05.908Z,95.41
2018-08-21T05:35:05.862Z,95.26
2018-08-21T05:36:05.823Z,95.65
2018-08-21T05:37:05.777Z,95.75
2018-08-21T05:38:05.718Z,95.84
2018-08-21T05:39:05.678Z,95.84
2018-08-21T05:40:05.636Z,95.94
2018-08-21T05:41:05.576Z,95.75
2018-08-21T05:42:05.531Z,95.75
2018-08-21T05:43:05.482Z,95.94
2018-08-21T05:44:05.435Z,96.03
2018-08-21T05:45:05.404Z,95.94
2018-08-21T05:46:05.346Z,95.65
2018-08-21T05:47:05.300Z,95.75
2018-08-21T05:48:05.231Z,95.84
2018-08-21T05:49:05.198Z,96.42
2018-08-21T05:50:05.161Z,96.70
2018-08-21T05:51:05.106Z,96.51
2018-08-21T05:52:05.065Z,96.32
2018-08-21T05:53:05.013Z,95.84
2018-08-21T05:54:04.965Z,95.94
2018-08-21T05:55:04.923Z,95.75
2018-08-21T05:56:04.873Z,95.94
2018-08-21T05:57:04.804Z,96.03
2018-08-21T05:58:04.777Z,96.13
2018-08-21T05:59:04.724Z,96.32
2018-08-21T06:00:04.661Z,96.13
2018-08-21T06:01:04.629Z,95.84
2018-08-21T06:02:04.581Z,96.42
2018-08-21T06:03:04.534Z,96.32
2018-08-21T06:04:04.491Z,96.03
2018-08-21T06:05:04.434Z,96.42
2018-08-21T06:06:04.400Z,96.51
2018-08-21T06:07:04.349Z,96.70
2018-08-21T06:08:04.332Z,96.66
2018-08-21T06:09:04.249Z,96.70
2018-08-21T06:10:04.203Z,96.99
2018-08-21T06:11:04.157Z,96.51
2018-08-21T06:12:04.107Z,96.99
2018-08-21T06:13:04.058Z,96.51
2018-08-21T06:14:04.047Z,96.42
2018-08-21T06:15:03.981Z,96.13
2018-08-21T06:16:03.917Z,96.66
2018-08-21T06:17:03.869Z,96.89
2018-08-21T06:18:03.822Z,96.70
2018-08-21T06:19:03.835Z,96.61
2018-08-21T06:20:03.726Z,96.70
2018-08-21T06:21:03.680Z,96.32
2018-08-21T06:22:03.618Z,96.13
2018-08-21T06:23:03.585Z,95.75
2018-08-21T06:24:03.552Z,95.65
2018-08-21T06:25:03.489Z,95.46
2018-08-21T06:26:03.446Z,95.36
2018-08-21T06:27:03.403Z,95.84
2018-08-21T06:28:03.346Z,96.03
2018-08-21T06:29:03.304Z,95.94
2018-08-21T06:30:03.251Z,96.22
2018-08-21T06:31:03.217Z,96.42
2018-08-21T06:32:03.273Z,96.08
2018-08-21T06:33:03.127Z,96.80
2018-08-21T06:34:03.048Z,96.51
2018-08-21T06:35:03.015Z,96.51
2018-08-21T06:36:03.001Z,95.94
2018-08-21T06:37:02.903Z,96.13
2018-08-21T06:38:02.911Z,94.98
2018-08-21T06:39:02.843Z,95.07
2018-08-21T06:40:02.785Z,94.69
2018-08-21T06:41:02.731Z,94.49
2018-08-21T06:42:02.683Z,94.21
2018-08-21T06:43:02.635Z,94.88
2018-08-21T06:44:02.594Z,94.88
2018-08-21T06:45:02.556Z,95.31
2018-08-21T06:46:02.493Z,95.65
2018-08-21T06:47:02.446Z,96.32
2018-08-21T06:48:02.397Z,95.55
2018-08-21T06:49:02.351Z,95.75
2018-08-21T06:50:02.310Z,95.46
2018-08-21T06:51:02.263Z,95.17
2018-08-21T06:52:02.211Z,94.88
2018-08-21T06:53:02.180Z,94.98
2018-08-21T06:54:02.112Z,95.17
2018-08-21T06:55:02.072Z,95.89
2018-08-21T06:56:02.000Z,95.70
2018-08-21T06:57:01.971Z,95.79
2018-08-21T06:58:01.927Z,96.18
2018-08-21T06:59:01.882Z,95.79
2018-08-21T07:00:01.830Z,96.27
2018-08-21T07:01:01.784Z,95.98
2018-08-21T07:02:01.741Z,96.47
2018-08-21T07:03:01.685Z,96.27
2018-08-21T07:04:01.641Z,95.98
2018-08-21T07:05:01.607Z,95.89
2018-08-21T07:06:01.544Z,95.51
2018-08-21T07:07:01.497Z,95.94
2018-08-21T07:08:01.449Z,95.12
2018-08-21T07:09:01.407Z,95.36
2018-08-21T07:10:01.357Z,95.31
2018-08-21T07:11:01.291Z,95.12
2018-08-21T07:12:01.249Z,95.60
2018-08-21T07:13:01.212Z,95.60
2018-08-21T07:14:01.169Z,95.70
2018-08-21T07:15:01.133Z,95.79
2018-08-21T07:16:01.074Z,96.47
2018-08-21T07:17:01.029Z,95.70
2018-08-21T07:18:00.977Z,95.70
2018-08-21T07:19:00.925Z,95.51
2018-08-21T07:20:00.888Z,95.79
2018-08-21T07:21:00.831Z,95.89
2018-08-21T07:22:00.787Z,96.37
2018-08-21T07:23:00.740Z,96.75
2018-08-21T07:24:00.699Z,96.47
2018-08-21T07:25:00.640Z,97.14
2018-08-21T07:26:00.588Z,97.38
2018-08-21T07:27:00.547Z,97.61
2018-08-21T07:28:00.498Z,97.71
2018-08-21T07:29:00.456Z,98.19
2018-08-21T07:30:00.404Z,97.71
2018-08-21T07:31:00.369Z,97.90
2018-08-21T07:32:00.308Z,97.42
2018-08-21T07:33:00.271Z,97.33
2018-08-21T07:34:00.221Z,96.85
2018-08-21T07:35:00.167Z,96.66
2018-08-21T07:36:00.120Z,97.04
2018-08-21T07:37:00.069Z,97.04
2018-08-21T07:38:00.016Z,96.66
2018-08-21T07:38:59.986Z,96.37
2018-08-21T07:39:59.943Z,96.47
2018-08-21T07:40:59.887Z,96.47
2018-08-21T07:41:59.819Z,96.66
2018-08-21T07:42:59.793Z,96.85
2018-08-21T07:43:59.724Z,96.66
2018-08-21T07:44:59.713Z,97.23
2018-08-21T07:45:59.659Z,97.38
2018-08-21T07:46:59.595Z,98.14
2018-08-21T07:47:59.551Z,97.85
2018-08-21T07:48:59.513Z,97.90
2018-08-21T07:49:59.459Z,97.66
2018-08-21T07:50:59.408Z,97.61
2018-08-21T07:51:59.359Z,97.28
2018-08-21T07:52:59.315Z,97.66
2018-08-21T07:53:59.264Z,98.10
2018-08-21T07:54:59.221Z,97.14
2018-08-21T07:55:59.169Z,96.94
2018-08-21T07:56:59.120Z,96.47
2018-08-21T07:57:59.086Z,96.66
2018-08-21T07:58:59.033Z,96.56
2018-08-21T07:59:58.983Z,96.66
2018-08-21T08:00:58.919Z,97.52
2018-08-21T08:01:58.888Z,98.05
2018-08-21T08:02:58.836Z,97.66
2018-08-21T08:03:58.824Z,97.66
2018-08-21T08:04:58.739Z,97.95
2018-08-21T08:05:58.695Z,98.52
2018-08-21T08:06:58.643Z,98.62
2018-08-21T08:07:58.603Z,98.43
2018-08-21T08:08:58.553Z,97.95
2018-08-21T08:09:58.516Z,97.56
2018-08-21T08:10:58.455Z,97.90
2018-08-21T08:11:58.407Z,97.42
2018-08-21T08:12:58.356Z,96.94
2018-08-21T08:13:58.549Z,96.66
2018-08-21T08:14:58.268Z,96.18
2018-08-21T08:15:58.219Z,96.75
2018-08-21T08:16:58.170Z,96.66
2018-08-21T08:17:58.131Z,96.85
2018-08-21T08:18:58.131Z,96.80
2018-08-21T08:19:58.032Z,97.23
2018-08-21T08:20:57.994Z,97.38
2018-08-21T08:21:57.917Z,97.66
2018-08-21T08:22:57.911Z,98.05
2018-08-21T08:23:57.835Z,97.76
2018-08-21T08:24:57.788Z,98.24
2018-08-21T08:25:57.747Z,98.19
2018-08-21T08:26:57.696Z,98.43
2018-08-21T08:27:57.643Z,97.56
2018-08-21T08:28:57.603Z,97.38
2018-08-21T08:29:57.554Z,97.66
2018-08-21T08:30:57.519Z,97.47
2018-08-21T08:31:57.457Z,97.76
2018-08-21T08:32:57.405Z,97.38
2018-08-21T08:33:57.358Z,97.85
2018-08-21T08:34:57.318Z,97.66
2018-08-21T08:35:57.347Z,97.23
2018-08-21T08:36:57.218Z,97.42
2018-08-21T08:37:57.173Z,96.85
2018-08-21T08:38:57.119Z,96.66
2018-08-21T08:39:57.071Z,96.85
2018-08-21T08:40:57.025Z,96.99
2018-08-21T08:41:57.030Z,97.28
2018-08-21T08:42:56.932Z,97.23
2018-08-21T08:43:56.874Z,97.14
2018-08-21T08:44:56.842Z,97.18
2018-08-21T08:45:56.785Z,97.23
2018-08-21T08:46:56.746Z,97.38
2018-08-21T08:47:56.675Z,97.38
2018-08-21T08:48:56.660Z,98.14
2018-08-21T08:49:56.602Z,97.85
2018-08-21T08:50:56.533Z,97.18
2018-08-21T08:51:56.523Z,97.28
2018-08-21T08:52:56.453Z,97.66
2018-08-21T08:53:56.407Z,97.85
2018-08-21T08:54:56.358Z,98.05
2018-08-21T08:55:56.323Z,98.52
2018-08-21T08:56:56.267Z,98.43
2018-08-21T08:57:56.216Z,98.05
2018-08-21T08:58:56.167Z,98.14
2018-08-21T08:59:56.130Z,98.52
2018-08-21T09:00:56.057Z,98.33
2018-08-21T09:01:56.023Z,98.52
2018-08-21T09:02:55.974Z,98.24
2018-08-21T09:03:55.915Z,97.85
2018-08-21T09:04:55.966Z,98.05
2018-08-21T09:05:55.832Z,97.09
2018-08-21T09:06:55.791Z,97.18
2018-08-21T09:07:55.742Z,96.80
2018-08-21T09:08:55.711Z,96.51
2018-08-21T09:09:55.646Z,96.89
2018-08-21T09:10:55.596Z,96.70
2018-08-21T09:11:55.549Z,96.70
2018-08-21T09:12:55.487Z,96.80
2018-08-21T09:13:55.495Z,96.89
2018-08-21T09:14:55.391Z,96.70
2018-08-21T09:15:55.357Z,96.61
2018-08-21T09:16:55.310Z,97.38
2018-08-21T09:17:55.269Z,97.28
2018-08-21T09:18:55.216Z,96.61
2018-08-21T09:19:55.173Z,97.38
2018-08-21T09:20:55.117Z,97.18
2018-08-21T09:21:55.076Z,97.38
2018-08-21T09:22:55.023Z,97.47
2018-08-21T09:23:54.979Z,97.38
2018-08-21T09:24:54.946Z,97.38
2018-08-21T09:25:54.895Z,97.66
2018-08-21T09:26:54.845Z,98.33
2018-08-21T09:27:54.790Z,97.95
2018-08-21T09:28:54.738Z,98.24
2018-08-21T09:29:54.705Z,98.05
2018-08-21T09:30:54.644Z,98.43
2018-08-21T09:31:54.601Z,98.62
2018-08-21T09:32:54.549Z,97.85
2018-08-21T09:33:54.501Z,97.95
2018-08-21T09:34:54.457Z,97.28
2018-08-21T09:35:54.421Z,97.38
2018-08-21T09:36:54.339Z,96.99
2018-08-21T09:37:54.316Z,96.61
2018-08-21T09:38:54.304Z,96.51
2018-08-21T09:39:54.224Z,96.70
2018-08-21T09:40:54.172Z,97.09
2018-08-21T09:41:54.124Z,97.47
2018-08-21T09:42:54.075Z,98.24
2018-08-21T09:43:54.027Z,98.05
2018-08-21T09:44:54.003Z,98.05
2018-08-21T09:45:53.927Z,97.66
2018-08-21T09:46:53.894Z,97.56
2018-08-21T09:47:53.837Z,97.47
2018-08-21T09:48:53.771Z,96.99
2018-08-21T09:49:53.725Z,96.80
2018-08-21T09:50:53.739Z,96.99
2018-08-21T09:51:53.655Z,97.28
2018-08-21T09:52:53.593Z,97.18
2018-08-21T09:53:53.558Z,97.38
2018-08-21T09:54:53.483Z,96.89
2018-08-21T09:55:53.453Z,96.32
2018-08-21T09:56:53.403Z,96.18
2018-08-21T09:57:53.362Z,95.79
2018-08-21T09:58:53.307Z,95.41
2018-08-21T09:59:53.266Z,95.31
2018-08-21T10:00:53.217Z,94.07
2018-08-21T10:01:53.200Z,94.26
2018-08-21T10:02:53.122Z,92.96
2018-08-21T10:03:53.082Z,90.37
2018-08-21T10:04:53.037Z,90.37
2018-08-21T10:05:52.993Z,90.85
2018-08-21T10:06:52.936Z,88.55
2018-08-21T10:07:52.884Z,87.98
2018-08-21T10:08:52.837Z,88.35
2018-08-21T10:09:52.790Z,90.18
2018-08-21T10:10:52.745Z,90.08
2018-08-21T10:11:52.703Z,90.56
2018-08-21T10:12:52.649Z,90.95
2018-08-21T10:13:52.607Z,90.75
2018-08-21T10:14:52.541Z,91.05
2018-08-21T10:15:52.518Z,90.85
2018-08-21T10:16:52.465Z,90.99
2018-08-21T10:17:52.421Z,90.42
2018-08-21T10:18:52.369Z,90.42
2018-08-21T10:19:52.327Z,88.88
2018-08-21T10:20:52.297Z,88.31
2018-08-21T10:21:52.238Z,87.15
2018-08-21T10:22:52.190Z,83.84
2018-08-21T10:23:52.125Z,81.82
2018-08-21T10:24:52.102Z,80.86
2018-08-21T10:25:52.050Z,79.80
2018-08-21T10:26:52.028Z,82.10
2018-08-21T10:27:51.962Z,81.92
2018-08-21T10:28:51.896Z,81.82
2018-08-21T10:29:51.867Z,82.49
2018-08-21T10:30:51.825Z,81.48
2018-08-21T10:31:51.773Z,80.61
2018-08-21T10:32:51.717Z,79.46
2018-08-21T10:33:51.682Z,78.50
2018-08-21T10:34:51.647Z,76.09
2018-08-21T10:35:51.590Z,75.32
2018-08-21T10:36:51.547Z,75.71
2018-08-21T10:37:51.505Z,75.52
2018-08-21T10:38:51.463Z,76.67
2018-08-21T10:39:51.441Z,76.86
2018-08-21T10:40:51.380Z,76.67
2018-08-21T10:41:51.322Z,76.57
2018-08-21T10:42:51.262Z,76.00
2018-08-21T10:43:51.235Z,77.15
2018-08-21T10:44:51.189Z,78.88
2018-08-21T10:45:51.143Z,78.78
2018-08-21T10:46:51.096Z,78.88
2018-08-21T10:47:51.056Z,79.75
2018-08-21T10:48:50.987Z,79.61
2018-08-21T10:49:50.970Z,77.69
2018-08-21T10:50:50.986Z,77.98
2018-08-21T10:51:50.971Z,78.11
2018-08-21T10:52:50.823Z,79.36
2018-08-21T10:53:50.778Z,79.46
2018-08-21T10:54:50.727Z,79.21
2018-08-21T10:55:50.681Z,79.05
2018-08-21T10:56:50.653Z,79.00
2018-08-21T10:57:50.594Z,79.28
2018-08-21T10:58:50.543Z,77.84
2018-08-21T10:59:50.517Z,77.31
2018-08-21T11:00:50.466Z,77.01
2018-08-21T11:01:50.409Z,76.38
2018-08-21T11:02:50.386Z,74.30
2018-08-21T11:03:50.342Z,72.75
2018-08-21T11:04:50.284Z,70.92
2018-08-21T11:05:50.263Z,71.41
2018-08-21T11:06:50.219Z,71.60
2018-08-21T11:07:50.185Z,71.98
2018-08-21T11:08:50.158Z,70.25
2018-08-21T11:09:50.094Z,68.90
2018-08-21T11:10:50.065Z,68.32
2018-08-21T11:11:50.017Z,68.80
2018-08-21T11:12:49.961Z,68.99
2018-08-21T11:13:49.926Z,67.16
2018-08-21T11:14:49.884Z,66.49
2018-08-21T11:15:49.842Z,66.20
2018-08-21T11:16:49.802Z,65.91
2018-08-21T11:17:49.763Z,66.01
2018-08-21T11:18:49.732Z,66.11
2018-08-21T11:19:49.672Z,66.39
2018-08-21T11:20:49.634Z,66.01
2018-08-21T11:21:49.625Z,65.53
2018-08-21T11:22:49.552Z,65.33
2018-08-21T11:23:49.500Z,65.43
2018-08-21T11:24:49.512Z,63.70
2018-08-21T11:25:49.427Z,63.98
2018-08-21T11:26:49.372Z,64.37
2018-08-21T11:27:49.332Z,65.81
2018-08-21T11:28:49.290Z,65.43
2018-08-21T11:29:49.292Z,65.53
2018-08-21T11:30:49.185Z,64.37
2018-08-21T11:31:49.159Z,64.79
2018-08-21T11:32:49.109Z,64.40
2018-08-21T11:33:49.072Z,64.79
2018-08-21T11:34:49.001Z,64.02
2018-08-21T11:35:48.987Z,63.82
2018-08-21T11:36:48.933Z,64.50
2018-08-21T11:37:48.924Z,64.69
2018-08-21T11:38:48.847Z,64.31
2018-08-21T11:39:48.822Z,64.31
2018-08-21T11:40:48.758Z,63.34
2018-08-21T11:41:48.721Z,63.15
2018-08-21T11:42:48.678Z,63.34
2018-08-21T11:43:48.630Z,62.76
2018-08-21T11:44:48.591Z,62.28
2018-08-21T11:45:48.542Z,63.92
2018-08-21T11:46:48.510Z,62.57
2018-08-21T11:47:48.458Z,62.57
2018-08-21T11:48:48.410Z,62.57
2018-08-21T11:49:48.374Z,62.48
2018-08-21T11:50:48.321Z,63.44
2018-08-21T11:51:48.269Z,64.11
2018-08-21T11:52:48.237Z,63.44
2018-08-21T11:53:48.186Z,63.24
2018-08-21T11:54:48.144Z,63.54
2018-08-21T11:55:48.080Z,63.44
2018-08-21T11:56:48.058Z,62.48
2018-08-21T11:57:48.009Z,62.18
2018-08-21T11:58:47.966Z,62.48
2018-08-21T11:59:47.927Z,63.34
2018-08-21T12:00:47.884Z,63.15
2018-08-21T12:01:47.847Z,62.38
2018-08-21T12:02:47.795Z,62.66
2018-08-21T12:03:47.749Z,62.86
2018-08-21T12:04:47.700Z,62.57
2018-08-21T12:05:47.657Z,62.38
2018-08-21T12:06:47.613Z,60.96
2018-08-21T12:07:47.569Z,61.06
2018-08-21T12:08:47.511Z,60.96
2018-08-21T12:09:47.490Z,60.68
2018-08-21T12:10:47.442Z,62.12
2018-08-21T12:11:47.390Z,61.25
2018-08-21T12:12:47.349Z,61.83
2018-08-21T12:13:47.306Z,62.22
2018-08-21T12:14:47.357Z,61.93
2018-08-21T12:15:47.225Z,60.77
2018-08-21T12:16:47.181Z,59.42
2018-08-21T12:17:47.162Z,58.94
2018-08-21T12:18:47.083Z,60.38
2018-08-21T12:19:47.039Z,62.02
2018-08-21T12:20:47.009Z,62.02
2018-08-21T12:21:46.953Z,60.96
2018-08-21T12:22:46.905Z,60.22
2018-08-21T12:23:46.860Z,59.64
2018-08-21T12:24:46.823Z,60.13
2018-08-21T12:25:46.782Z,59.55
2018-08-21T12:26:46.739Z,59.83
2018-08-21T12:27:46.696Z,60.22
2018-08-21T12:28:46.646Z,60.22
2018-08-21T12:29:46.645Z,59.16
2018-08-21T12:30:46.557Z,59.16
2018-08-21T12:31:46.521Z,58.39
2018-08-21T12:32:46.473Z,59.16
2018-08-21T12:33:46.435Z,60.03
2018-08-21T12:34:46.387Z,59.35
2018-08-21T12:35:46.349Z,59.55
2018-08-21T12:36:46.297Z,59.74
2018-08-21T12:37:46.267Z,59.16
2018-08-21T12:38:46.257Z,59.16
2018-08-21T12:39:46.151Z,60.31
2018-08-21T12:40:46.130Z,59.64
2018-08-21T12:41:46.078Z,59.35
2018-08-21T12:42:46.048Z,59.16
2018-08-21T12:43:45.997Z,58.29
2018-08-21T12:44:45.941Z,58.68
2018-08-21T12:45:45.913Z,58.68
2018-08-21T12:46:45.867Z,59.16
2018-08-21T12:47:45.815Z,59.93
2018-08-21T12:48:45.752Z,58.42
2018-08-21T12:49:45.729Z,58.10
2018-08-21T12:50:45.682Z,56.87
2018-08-21T12:51:45.627Z,57.16